createdAt,value
2019-03-31T00:00:07.978Z,20.46
2019-03-31T00:01:08.733Z,20.48
2019-03-31T00:02:08.008Z,20.46
2019-03-31T00:03:08.573Z,20.46
2019-03-31T00:04:08.367Z,20.46
2019-03-31T00:05:07.924Z,20.42
2019-03-31T00:06:07.909Z,20.41
2019-03-31T00:07:07.893Z,20.44
2019-03-31T00:08:07.938Z,20.44
2019-03-31T00:09:07.883Z,20.40
2019-03-31T00:10:07.870Z,20.38
2019-03-31T00:11:07.847Z,20.44
2019-03-31T00:12:07.833Z,20.38
2019-03-31T00:13:08.140Z,20.44
2019-03-31T00:14:07.870Z,20.41
2019-03-31T00:15:07.824Z,20.33
2019-03-31T00:16:07.787Z,20.34
2019-03-31T00:17:07.781Z,20.33
2019-03-31T00:18:07.769Z,20.41
2019-03-31T00:19:07.757Z,20.35
2019-03-31T00:20:07.765Z,20.35
2019-03-31T00:21:07.735Z,20.41
2019-03-31T00:22:07.723Z,20.31
2019-03-31T00:23:07.712Z,20.38
2019-03-31T00:24:07.701Z,20.41
2019-03-31T00:25:07.854Z,20.38
2019-03-31T00:26:07.683Z,20.34
2019-03-31T00:27:07.668Z,20.35
2019-03-31T00:28:08.578Z,20.37
2019-03-31T00:29:07.647Z,20.37
2019-03-31T00:30:07.654Z,20.33
2019-03-31T00:31:21.170Z,20.31
2019-03-31T00:32:09.003Z,20.37
2019-03-31T00:33:07.611Z,20.30
2019-03-31T00:34:07.591Z,20.30
2019-03-31T00:35:07.642Z,20.30
2019-03-31T00:36:07.720Z,20.27
2019-03-31T00:37:07.960Z,20.31
2019-03-31T00:38:07.992Z,20.33
2019-03-31T00:39:07.536Z,20.26
2019-03-31T00:40:07.541Z,20.30
2019-03-31T00:41:07.518Z,20.27
2019-03-31T00:42:07.507Z,20.25
2019-03-31T00:43:07.493Z,20.26
2019-03-31T00:44:07.482Z,20.26
2019-03-31T00:45:07.877Z,20.26
2019-03-31T00:46:07.773Z,20.31
2019-03-31T00:47:07.454Z,20.30
2019-03-31T00:48:07.799Z,20.27
2019-03-31T00:49:07.883Z,20.23
2019-03-31T00:50:07.435Z,20.25
2019-03-31T00:51:07.563Z,20.25
2019-03-31T00:52:07.715Z,20.30
2019-03-31T00:53:07.725Z,20.23
2019-03-31T00:54:07.578Z,20.12
2019-03-31T00:55:07.554Z,20.20
2019-03-31T00:56:07.351Z,20.20
2019-03-31T00:57:07.467Z,20.27
2019-03-31T00:58:07.365Z,20.23
2019-03-31T00:59:07.319Z,20.26
2019-03-31T01:00:07.326Z,20.17
2019-03-31T01:01:07.310Z,20.20
2019-03-31T01:02:07.285Z,20.19
2019-03-31T01:03:07.273Z,20.22
2019-03-31T01:04:07.265Z,20.27
2019-03-31T01:05:07.268Z,20.20
2019-03-31T01:06:07.247Z,20.20
2019-03-31T01:07:07.230Z,20.19
2019-03-31T01:08:07.225Z,20.20
2019-03-31T01:09:07.273Z,20.19
2019-03-31T01:10:07.213Z,20.17
2019-03-31T01:11:07.188Z,20.22
2019-03-31T01:12:07.177Z,20.20
2019-03-31T01:13:07.163Z,20.25
2019-03-31T01:14:07.152Z,20.19
2019-03-31T01:15:07.158Z,20.16
2019-03-31T01:16:07.132Z,20.19
2019-03-31T01:17:07.121Z,20.12
2019-03-31T01:18:07.118Z,20.15
2019-03-31T01:19:07.099Z,20.13
2019-03-31T01:20:07.101Z,20.16
2019-03-31T01:21:07.078Z,20.12
2019-03-31T01:22:07.065Z,20.19
2019-03-31T01:23:07.056Z,20.15
2019-03-31T01:24:07.054Z,20.16
2019-03-31T01:25:07.049Z,20.16
2019-03-31T01:26:07.021Z,20.12
2019-03-31T01:27:07.014Z,20.13
2019-03-31T01:28:07.004Z,20.12
2019-03-31T01:29:06.992Z,20.16
2019-03-31T01:30:07.001Z,20.13
2019-03-31T01:31:06.967Z,20.12
2019-03-31T01:32:06.956Z,20.08
2019-03-31T01:33:06.945Z,20.16
2019-03-31T01:34:06.941Z,20.08
2019-03-31T01:35:06.937Z,20.13
2019-03-31T01:36:06.911Z,20.01
2019-03-31T01:37:06.903Z,20.10
2019-03-31T01:38:06.890Z,20.08
2019-03-31T01:39:06.879Z,20.05
2019-03-31T01:40:06.890Z,20.10
2019-03-31T01:41:06.865Z,20.13
2019-03-31T01:42:06.845Z,20.07
2019-03-31T01:43:06.834Z,20.08
2019-03-31T01:44:06.826Z,20.04
2019-03-31T01:45:06.838Z,20.04
2019-03-31T01:46:06.801Z,20.05
2019-03-31T01:47:06.806Z,20.01
2019-03-31T01:48:06.780Z,20.01
2019-03-31T01:49:06.770Z,20.00
2019-03-31T01:50:06.773Z,20.05
2019-03-31T01:51:06.751Z,20.05
2019-03-31T01:52:06.740Z,20.00
2019-03-31T01:53:06.725Z,19.98
2019-03-31T01:54:06.715Z,19.98
2019-03-31T01:55:06.752Z,20.05
2019-03-31T01:56:06.693Z,19.94
2019-03-31T01:57:06.688Z,19.98
2019-03-31T01:58:06.677Z,19.94
2019-03-31T01:59:06.681Z,19.94
2019-03-31T02:00:06.653Z,19.92
2019-03-31T02:01:06.652Z,19.90
2019-03-31T02:02:06.627Z,19.92
2019-03-31T02:03:06.615Z,19.94
2019-03-31T02:04:06.609Z,19.89
2019-03-31T02:05:06.597Z,19.94
2019-03-31T02:06:06.598Z,19.90
2019-03-31T02:07:06.573Z,19.94
2019-03-31T02:08:06.564Z,19.94
2019-03-31T02:09:06.556Z,19.89
2019-03-31T02:10:06.559Z,19.94
2019-03-31T02:11:06.544Z,19.86
2019-03-31T02:12:06.527Z,19.92
2019-03-31T02:13:06.505Z,19.92
2019-03-31T02:14:06.505Z,19.90
2019-03-31T02:15:06.484Z,19.79
2019-03-31T02:16:06.492Z,19.89
2019-03-31T02:17:06.463Z,19.78
2019-03-31T02:18:06.452Z,19.79
2019-03-31T02:19:06.442Z,19.89
2019-03-31T02:20:06.439Z,19.85
2019-03-31T02:21:06.439Z,19.87
2019-03-31T02:22:06.409Z,19.78
2019-03-31T02:23:06.397Z,19.82
2019-03-31T02:24:06.385Z,19.85
2019-03-31T02:25:06.374Z,19.79
2019-03-31T02:26:06.380Z,19.82
2019-03-31T02:27:06.365Z,19.83
2019-03-31T02:28:06.341Z,19.78
2019-03-31T02:29:06.332Z,19.82
2019-03-31T02:30:06.321Z,19.80
2019-03-31T02:31:06.329Z,19.79
2019-03-31T02:32:22.497Z,19.80
2019-03-31T02:33:07.288Z,19.79
2019-03-31T02:34:06.275Z,19.80
2019-03-31T02:35:06.266Z,19.76
2019-03-31T02:36:06.269Z,19.85
2019-03-31T02:37:06.245Z,19.76
2019-03-31T02:38:06.232Z,19.78
2019-03-31T02:39:06.239Z,19.75
2019-03-31T02:40:06.210Z,19.76
2019-03-31T02:41:06.211Z,19.80
2019-03-31T02:42:06.192Z,19.71
2019-03-31T02:43:06.188Z,19.72
2019-03-31T02:44:06.169Z,19.83
2019-03-31T02:45:06.171Z,19.65
2019-03-31T02:46:06.171Z,19.70
2019-03-31T02:47:06.136Z,19.80
2019-03-31T02:48:06.123Z,19.85
2019-03-31T02:49:06.120Z,19.75
2019-03-31T02:50:06.107Z,19.67
2019-03-31T02:51:06.116Z,19.71
2019-03-31T02:52:06.095Z,19.70
2019-03-31T02:53:06.068Z,19.72
2019-03-31T02:54:06.058Z,19.76
2019-03-31T02:55:06.047Z,19.70
2019-03-31T02:56:06.056Z,19.67
2019-03-31T02:57:06.035Z,19.72
2019-03-31T02:58:06.027Z,19.68
2019-03-31T02:59:06.003Z,19.70
2019-03-31T03:00:05.990Z,19.70
2019-03-31T03:01:06.004Z,19.70
2019-03-31T03:02:05.972Z,19.68
2019-03-31T03:03:05.959Z,19.67
2019-03-31T03:04:07.948Z,19.67
2019-03-31T03:05:18.676Z,19.70
2019-03-31T03:06:07.215Z,19.71
2019-03-31T03:07:05.916Z,19.71
2019-03-31T03:08:05.911Z,19.71
2019-03-31T03:09:05.893Z,19.67
2019-03-31T03:10:05.883Z,19.68
2019-03-31T03:11:05.869Z,19.65
2019-03-31T03:12:05.880Z,19.62
2019-03-31T03:13:05.853Z,19.52
2019-03-31T03:14:05.835Z,19.67
2019-03-31T03:15:05.827Z,19.67
2019-03-31T03:16:05.814Z,19.64
2019-03-31T03:17:05.824Z,19.67
2019-03-31T03:18:05.792Z,19.67
2019-03-31T03:19:05.787Z,19.68
2019-03-31T03:20:05.769Z,19.62
2019-03-31T03:21:05.758Z,19.58
2019-03-31T03:22:05.763Z,19.58
2019-03-31T03:23:05.746Z,19.62
2019-03-31T03:24:05.724Z,19.58
2019-03-31T03:25:05.722Z,19.60
2019-03-31T03:26:05.701Z,19.58
2019-03-31T03:27:05.704Z,19.60
2019-03-31T03:28:05.679Z,19.60
2019-03-31T03:29:05.681Z,19.60
2019-03-31T03:30:05.664Z,19.61
2019-03-31T03:31:13.975Z,19.57
2019-03-31T03:32:06.654Z,19.60
2019-03-31T03:33:16.287Z,19.61
2019-03-31T03:34:06.642Z,19.58
2019-03-31T03:35:05.611Z,19.53
2019-03-31T03:36:05.597Z,19.55
2019-03-31T03:37:05.606Z,19.57
2019-03-31T03:38:05.574Z,19.58
2019-03-31T03:39:05.558Z,19.55
2019-03-31T03:40:05.556Z,19.46
2019-03-31T03:41:05.535Z,19.53
2019-03-31T03:42:05.543Z,19.57
2019-03-31T03:43:05.514Z,19.53
2019-03-31T03:44:05.504Z,19.47
2019-03-31T03:45:05.490Z,19.57
2019-03-31T03:46:05.481Z,19.49
2019-03-31T03:47:05.486Z,19.47
2019-03-31T03:48:05.582Z,19.46
2019-03-31T03:49:05.516Z,19.49
2019-03-31T03:50:05.433Z,19.46
2019-03-31T03:51:05.423Z,19.50
2019-03-31T03:52:05.436Z,19.49
2019-03-31T03:53:05.410Z,19.45
2019-03-31T03:54:05.414Z,19.45
2019-03-31T03:55:05.376Z,19.46
2019-03-31T03:56:05.367Z,19.45
2019-03-31T03:57:05.369Z,19.43
2019-03-31T03:58:05.350Z,19.43
2019-03-31T03:59:05.337Z,19.46
2019-03-31T04:00:05.322Z,19.43
2019-03-31T04:01:05.309Z,19.49
2019-03-31T04:02:05.313Z,19.47
2019-03-31T04:03:05.289Z,19.46
2019-03-31T04:04:05.276Z,19.47
2019-03-31T04:05:05.276Z,19.47
2019-03-31T04:06:05.256Z,19.49
2019-03-31T04:07:05.259Z,19.38
2019-03-31T04:08:05.232Z,19.45
2019-03-31T04:09:05.223Z,19.38
2019-03-31T04:10:05.226Z,19.42
2019-03-31T04:11:05.204Z,19.35
2019-03-31T04:12:05.204Z,19.42
2019-03-31T04:13:05.183Z,19.35
2019-03-31T04:14:05.165Z,19.42
2019-03-31T04:15:05.159Z,19.39
2019-03-31T04:16:05.141Z,19.40
2019-03-31T04:17:05.150Z,19.40
2019-03-31T04:18:05.118Z,19.40
2019-03-31T04:19:05.109Z,19.43
2019-03-31T04:20:05.098Z,19.39
2019-03-31T04:21:05.098Z,19.39
2019-03-31T04:22:05.092Z,19.34
2019-03-31T04:23:05.066Z,19.31
2019-03-31T04:24:05.055Z,19.32
2019-03-31T04:25:05.041Z,19.32
2019-03-31T04:26:05.036Z,19.32
2019-03-31T04:27:05.041Z,19.38
2019-03-31T04:28:05.028Z,19.39
2019-03-31T04:29:04.997Z,19.25
2019-03-31T04:30:04.983Z,19.23
2019-03-31T04:31:04.973Z,19.27
2019-03-31T04:32:04.979Z,19.25
2019-03-31T04:33:04.951Z,19.21
2019-03-31T04:34:04.938Z,19.23
2019-03-31T04:35:04.928Z,19.20
2019-03-31T04:36:05.009Z,19.27
2019-03-31T04:37:04.930Z,19.27
2019-03-31T04:38:04.895Z,19.31
2019-03-31T04:39:04.890Z,19.25
2019-03-31T04:40:04.870Z,19.27
2019-03-31T04:41:04.863Z,19.27
2019-03-31T04:42:04.864Z,19.25
2019-03-31T04:43:04.837Z,19.23
2019-03-31T04:44:04.828Z,19.30
2019-03-31T04:45:04.827Z,19.23
2019-03-31T04:46:04.816Z,19.21
2019-03-31T04:47:04.810Z,19.28
2019-03-31T04:48:04.780Z,19.23
2019-03-31T04:49:04.786Z,19.30
2019-03-31T04:50:04.764Z,19.20
2019-03-31T04:51:04.748Z,19.25
2019-03-31T04:52:04.749Z,19.24
2019-03-31T04:53:04.724Z,19.23
2019-03-31T04:54:04.712Z,19.24
2019-03-31T04:55:04.704Z,19.23
2019-03-31T04:56:04.705Z,19.20
2019-03-31T04:57:04.798Z,19.17
2019-03-31T04:58:04.666Z,19.20
2019-03-31T04:59:04.662Z,19.23
2019-03-31T05:00:04.645Z,19.13
2019-03-31T05:01:04.634Z,19.21
2019-03-31T05:02:04.632Z,19.13
2019-03-31T05:03:04.630Z,19.12
2019-03-31T05:04:05.485Z,19.23
2019-03-31T05:05:04.590Z,19.12
2019-03-31T05:06:04.585Z,19.07
2019-03-31T05:07:04.573Z,19.23
2019-03-31T05:08:04.570Z,19.10
2019-03-31T05:09:04.544Z,19.15
2019-03-31T05:10:04.533Z,19.12
2019-03-31T05:11:04.521Z,19.16
2019-03-31T05:12:04.515Z,19.21
2019-03-31T05:13:04.514Z,19.13
2019-03-31T05:14:04.488Z,19.21
2019-03-31T05:15:04.479Z,19.07
2019-03-31T05:16:04.465Z,19.24
2019-03-31T05:17:04.453Z,19.20
2019-03-31T05:18:04.463Z,19.15
2019-03-31T05:19:04.436Z,19.12
2019-03-31T05:20:04.425Z,19.17
2019-03-31T05:21:04.410Z,19.16
2019-03-31T05:22:04.399Z,19.10
2019-03-31T05:23:04.402Z,19.17
2019-03-31T05:24:04.380Z,19.21
2019-03-31T05:25:04.381Z,19.13
2019-03-31T05:26:04.353Z,19.17
2019-03-31T05:27:04.342Z,19.13
2019-03-31T05:28:04.345Z,19.20
2019-03-31T05:29:04.320Z,19.13
2019-03-31T05:30:04.316Z,19.10
2019-03-31T05:31:04.312Z,19.12
2019-03-31T05:32:04.284Z,19.13
2019-03-31T05:33:04.291Z,19.10
2019-03-31T05:34:18.113Z,19.09
2019-03-31T05:35:05.251Z,19.20
2019-03-31T05:36:04.245Z,19.10
2019-03-31T05:37:04.229Z,19.21
2019-03-31T05:38:04.236Z,19.16
2019-03-31T05:39:04.205Z,19.13
2019-03-31T05:40:04.198Z,19.10
2019-03-31T05:41:04.186Z,19.10
2019-03-31T05:42:04.176Z,19.07
2019-03-31T05:43:04.180Z,19.06
2019-03-31T05:44:05.787Z,19.12
2019-03-31T05:45:04.139Z,19.12
2019-03-31T05:46:04.128Z,19.09
2019-03-31T05:47:04.117Z,19.07
2019-03-31T05:48:04.124Z,19.12
2019-03-31T05:49:04.093Z,19.15
2019-03-31T05:50:04.082Z,19.15
2019-03-31T05:51:04.071Z,19.06
2019-03-31T05:52:04.066Z,19.01
2019-03-31T05:53:04.064Z,19.07
2019-03-31T05:54:04.038Z,19.05
2019-03-31T05:55:04.027Z,19.05
2019-03-31T05:56:04.106Z,19.06
2019-03-31T05:57:04.006Z,19.09
2019-03-31T05:58:04.013Z,19.06
2019-03-31T05:59:03.990Z,19.02
2019-03-31T06:00:03.976Z,18.97
2019-03-31T06:01:03.958Z,19.06
2019-03-31T06:02:03.951Z,19.07
2019-03-31T06:03:03.954Z,19.10
2019-03-31T06:04:03.935Z,19.02
2019-03-31T06:05:03.915Z,19.05
2019-03-31T06:06:03.902Z,19.02
2019-03-31T06:07:03.890Z,19.05
2019-03-31T06:08:03.901Z,19.05
2019-03-31T06:09:03.870Z,19.05
2019-03-31T06:10:03.864Z,18.99
2019-03-31T06:11:03.849Z,18.99
2019-03-31T06:12:03.834Z,19.02
2019-03-31T06:13:03.843Z,19.07
2019-03-31T06:14:03.820Z,19.02
2019-03-31T06:15:03.802Z,18.97
2019-03-31T06:16:03.808Z,18.99
2019-03-31T06:17:03.779Z,19.05
2019-03-31T06:18:03.789Z,18.97
2019-03-31T06:19:03.755Z,18.97
2019-03-31T06:20:03.748Z,18.97
2019-03-31T06:21:03.741Z,18.99
2019-03-31T06:22:03.723Z,19.06
2019-03-31T06:23:03.730Z,19.01
2019-03-31T06:24:03.700Z,19.06
2019-03-31T06:25:03.710Z,19.09
2019-03-31T06:26:03.682Z,19.09
2019-03-31T06:27:03.675Z,19.12
2019-03-31T06:28:03.705Z,19.12
2019-03-31T06:29:03.643Z,19.16
2019-03-31T06:30:03.633Z,19.13
2019-03-31T06:31:03.634Z,19.15
2019-03-31T06:32:03.609Z,19.15
2019-03-31T06:33:03.625Z,19.15
2019-03-31T06:34:03.587Z,19.12
2019-03-31T06:35:03.578Z,19.15
2019-03-31T06:36:03.577Z,19.15
2019-03-31T06:37:03.560Z,19.13
2019-03-31T06:38:03.594Z,19.12
2019-03-31T06:39:03.533Z,19.02
2019-03-31T06:40:03.524Z,19.10
2019-03-31T06:41:03.516Z,19.07
2019-03-31T06:42:03.504Z,19.06
2019-03-31T06:43:03.512Z,19.15
2019-03-31T06:44:03.485Z,19.07
2019-03-31T06:45:03.466Z,19.06
2019-03-31T06:46:03.461Z,19.15
2019-03-31T06:47:03.454Z,19.05
2019-03-31T06:48:03.459Z,19.15
2019-03-31T06:49:03.422Z,19.05
2019-03-31T06:50:03.417Z,19.05
2019-03-31T06:51:03.397Z,19.10
2019-03-31T06:52:03.387Z,19.06
2019-03-31T06:53:03.393Z,19.02
2019-03-31T06:54:03.369Z,19.01
2019-03-31T06:55:03.355Z,19.02
2019-03-31T06:56:03.358Z,19.07
2019-03-31T06:57:03.331Z,19.02
2019-03-31T06:58:03.337Z,19.06
2019-03-31T06:59:03.309Z,18.93
2019-03-31T07:00:03.311Z,19.06
2019-03-31T07:01:03.295Z,19.01
2019-03-31T07:02:03.620Z,18.96
2019-03-31T07:03:03.276Z,18.90
2019-03-31T07:04:03.259Z,18.97
2019-03-31T07:05:03.246Z,18.94
2019-03-31T07:06:03.232Z,18.93
2019-03-31T07:07:03.233Z,18.94
2019-03-31T07:08:03.239Z,18.94
2019-03-31T07:09:03.196Z,18.96
2019-03-31T07:10:03.205Z,18.94
2019-03-31T07:11:03.174Z,18.93
2019-03-31T07:12:03.167Z,18.99
2019-03-31T07:13:03.162Z,18.93
2019-03-31T07:14:03.176Z,18.91
2019-03-31T07:15:03.131Z,18.96
2019-03-31T07:16:03.120Z,18.89
2019-03-31T07:17:03.118Z,18.90
2019-03-31T07:18:03.115Z,18.93
2019-03-31T07:19:03.099Z,18.91
2019-03-31T07:20:03.089Z,18.94
2019-03-31T07:21:03.061Z,18.94
2019-03-31T07:22:03.093Z,18.94
2019-03-31T07:23:03.039Z,18.94
2019-03-31T07:24:03.044Z,18.89
2019-03-31T07:25:03.016Z,18.99
2019-03-31T07:26:03.008Z,18.87
2019-03-31T07:27:02.996Z,18.93
2019-03-31T07:28:02.988Z,18.99
2019-03-31T07:29:02.990Z,18.91
2019-03-31T07:30:02.963Z,18.90
2019-03-31T07:31:02.952Z,18.93
2019-03-31T07:32:02.938Z,18.91
2019-03-31T07:33:02.930Z,18.94
2019-03-31T07:34:02.930Z,18.87
2019-03-31T07:35:02.907Z,18.94
2019-03-31T07:36:02.904Z,18.90
2019-03-31T07:37:02.881Z,18.93
2019-03-31T07:38:02.875Z,18.97
2019-03-31T07:39:03.075Z,18.99
2019-03-31T07:40:03.111Z,18.94
2019-03-31T07:41:12.493Z,18.91
2019-03-31T07:42:04.241Z,18.87
2019-03-31T07:43:02.846Z,18.91
2019-03-31T07:44:02.818Z,18.99
2019-03-31T07:45:02.791Z,18.87
2019-03-31T07:46:02.780Z,18.89
2019-03-31T07:47:02.772Z,18.87
2019-03-31T07:48:02.757Z,18.90
2019-03-31T07:49:02.767Z,18.91
2019-03-31T07:50:02.735Z,18.90
2019-03-31T07:51:02.727Z,18.79
2019-03-31T07:52:02.716Z,18.86
2019-03-31T07:53:02.711Z,18.89
2019-03-31T07:54:02.703Z,18.86
2019-03-31T07:55:02.680Z,18.90
2019-03-31T07:56:02.671Z,18.86
2019-03-31T07:57:02.664Z,18.91
2019-03-31T07:58:02.650Z,18.99
2019-03-31T07:59:02.680Z,18.89
2019-03-31T08:00:02.670Z,18.82
2019-03-31T08:01:02.612Z,18.96
2019-03-31T08:02:02.601Z,18.86
2019-03-31T08:03:02.591Z,18.84
2019-03-31T08:04:02.591Z,18.87
2019-03-31T08:05:02.567Z,18.84
2019-03-31T08:06:02.558Z,18.90
2019-03-31T08:07:02.548Z,18.94
2019-03-31T08:08:02.533Z,18.91
2019-03-31T08:09:02.554Z,18.91
2019-03-31T08:10:02.517Z,18.93
2019-03-31T08:11:02.500Z,18.91
2019-03-31T08:12:02.490Z,18.87
2019-03-31T08:13:02.477Z,18.90
2019-03-31T08:14:02.486Z,18.83
2019-03-31T08:15:02.461Z,18.86
2019-03-31T08:16:02.454Z,18.86
2019-03-31T08:17:02.433Z,18.90
2019-03-31T08:18:02.422Z,18.94
2019-03-31T08:19:02.431Z,18.79
2019-03-31T08:20:02.400Z,18.86
2019-03-31T08:21:02.397Z,18.96
2019-03-31T08:22:02.377Z,18.86
2019-03-31T08:23:02.366Z,18.97
2019-03-31T08:24:02.376Z,18.91
2019-03-31T08:25:02.344Z,18.90
2019-03-31T08:26:02.332Z,18.91
2019-03-31T08:27:05.433Z,18.94
2019-03-31T08:28:02.398Z,18.96
2019-03-31T08:29:02.315Z,18.90
2019-03-31T08:30:02.287Z,18.89
2019-03-31T08:31:02.281Z,18.99
2019-03-31T08:32:02.266Z,18.93
2019-03-31T08:33:02.268Z,18.89
2019-03-31T08:34:02.369Z,18.89
2019-03-31T08:35:02.244Z,18.94
2019-03-31T08:36:02.225Z,18.94
2019-03-31T08:37:02.228Z,18.90
2019-03-31T08:38:02.202Z,18.91
2019-03-31T08:39:02.212Z,18.93
2019-03-31T08:40:02.184Z,18.90
2019-03-31T08:41:02.166Z,18.91
2019-03-31T08:42:02.154Z,18.94
2019-03-31T08:43:02.145Z,18.91
2019-03-31T08:44:02.149Z,18.94
2019-03-31T08:45:02.123Z,18.96
2019-03-31T08:46:02.112Z,18.96
2019-03-31T08:47:02.100Z,18.90
2019-03-31T08:48:02.088Z,18.94
2019-03-31T08:49:02.095Z,18.93
2019-03-31T08:50:02.771Z,18.87
2019-03-31T08:51:02.055Z,18.91
2019-03-31T08:52:02.046Z,18.89
2019-03-31T08:53:02.036Z,18.96
2019-03-31T08:54:02.047Z,18.97
2019-03-31T08:55:02.014Z,18.97
2019-03-31T08:56:02.015Z,18.87
2019-03-31T08:57:01.996Z,18.91
2019-03-31T08:58:01.981Z,18.94
2019-03-31T08:59:01.984Z,18.94
2019-03-31T09:00:01.958Z,18.91
2019-03-31T09:01:01.947Z,19.01
2019-03-31T09:02:03.481Z,18.94
2019-03-31T09:03:01.921Z,18.93
2019-03-31T09:04:01.937Z,18.90
2019-03-31T09:05:01.900Z,18.91
2019-03-31T09:06:02.678Z,19.05
2019-03-31T09:07:01.898Z,18.97
2019-03-31T09:08:01.863Z,18.94
2019-03-31T09:09:01.870Z,19.02
2019-03-31T09:10:01.849Z,19.06
2019-03-31T09:11:01.838Z,19.06
2019-03-31T09:12:01.822Z,19.06
2019-03-31T09:13:01.821Z,19.06
2019-03-31T09:14:01.814Z,19.01
2019-03-31T09:15:01.804Z,18.96
2019-03-31T09:16:01.776Z,18.99
2019-03-31T09:17:01.779Z,18.97
2019-03-31T09:18:01.758Z,19.01
2019-03-31T09:19:01.761Z,19.01
2019-03-31T09:20:01.735Z,19.06
2019-03-31T09:21:01.723Z,19.02
2019-03-31T09:22:01.707Z,19.06
2019-03-31T09:23:01.715Z,18.94
2019-03-31T09:24:01.721Z,19.05
2019-03-31T09:25:01.681Z,19.02
2019-03-31T09:26:01.666Z,19.06
2019-03-31T09:27:01.653Z,19.05
2019-03-31T09:28:01.642Z,19.01
2019-03-31T09:29:01.632Z,18.99
2019-03-31T09:30:01.633Z,19.01
2019-03-31T09:31:01.608Z,19.01
2019-03-31T09:32:01.596Z,19.01
2019-03-31T09:33:01.587Z,18.99
2019-03-31T09:34:01.585Z,19.09
2019-03-31T09:35:01.580Z,19.02
2019-03-31T09:36:15.082Z,19.06
2019-03-31T09:37:02.540Z,19.05
2019-03-31T09:38:01.544Z,19.16
2019-03-31T09:39:01.520Z,19.13
2019-03-31T09:40:01.528Z,19.17
2019-03-31T09:41:01.518Z,19.15
2019-03-31T09:42:01.491Z,19.10
2019-03-31T09:43:01.475Z,19.10
2019-03-31T09:44:01.473Z,19.07
2019-03-31T09:45:01.474Z,19.15
2019-03-31T09:46:01.441Z,19.21
2019-03-31T09:47:01.440Z,19.10
2019-03-31T09:48:01.423Z,19.10
2019-03-31T09:49:01.413Z,19.10
2019-03-31T09:50:01.423Z,19.15
2019-03-31T09:51:01.388Z,19.10
2019-03-31T09:52:01.376Z,19.15
2019-03-31T09:53:01.367Z,19.15
2019-03-31T09:54:01.356Z,19.13
2019-03-31T09:55:01.356Z,19.16
2019-03-31T09:56:01.328Z,19.13
2019-03-31T09:57:01.318Z,19.15
2019-03-31T09:58:01.314Z,19.20
2019-03-31T09:59:01.297Z,19.20
2019-03-31T10:00:01.314Z,19.15
2019-03-31T10:01:01.277Z,19.20
2019-03-31T10:02:01.265Z,19.10
2019-03-31T10:03:01.342Z,19.15
2019-03-31T10:04:01.268Z,19.20
2019-03-31T10:05:01.261Z,19.10
2019-03-31T10:06:10.501Z,19.23
2019-03-31T10:07:02.214Z,19.20
2019-03-31T10:08:01.197Z,19.16
2019-03-31T10:09:01.189Z,19.16
2019-03-31T10:10:01.191Z,19.17
2019-03-31T10:11:02.831Z,19.24
2019-03-31T10:12:01.154Z,19.13
2019-03-31T10:13:01.145Z,19.20
2019-03-31T10:14:01.135Z,19.15
2019-03-31T10:15:01.144Z,19.21
2019-03-31T10:16:01.125Z,19.09
2019-03-31T10:17:01.101Z,19.20
2019-03-31T10:18:01.088Z,19.10
2019-03-31T10:19:01.075Z,19.25
2019-03-31T10:20:01.080Z,19.21
2019-03-31T10:21:01.058Z,19.21
2019-03-31T10:22:01.056Z,19.21
2019-03-31T10:23:01.035Z,19.21
2019-03-31T10:24:01.032Z,19.23
2019-03-31T10:25:01.030Z,19.21
2019-03-31T10:26:01.011Z,19.20
2019-03-31T10:27:00.996Z,19.13
2019-03-31T10:28:00.982Z,19.27
2019-03-31T10:29:00.975Z,19.21
2019-03-31T10:30:00.977Z,19.20
2019-03-31T10:31:00.945Z,19.23
2019-03-31T10:32:00.934Z,19.21
2019-03-31T10:33:00.931Z,19.21
2019-03-31T10:34:00.916Z,19.30
2019-03-31T10:35:00.917Z,19.24
2019-03-31T10:36:00.983Z,19.25
2019-03-31T10:37:00.887Z,19.23
2019-03-31T10:38:00.892Z,19.23
2019-03-31T10:39:00.861Z,19.27
2019-03-31T10:40:00.871Z,19.27
2019-03-31T10:41:00.836Z,19.25
2019-03-31T10:42:00.898Z,19.30
2019-03-31T10:43:00.813Z,19.21
2019-03-31T10:44:00.804Z,19.24
2019-03-31T10:45:00.808Z,19.24
2019-03-31T10:46:00.781Z,19.27
2019-03-31T10:47:00.770Z,19.27
2019-03-31T10:48:00.773Z,19.25
2019-03-31T10:49:00.759Z,19.27
2019-03-31T10:50:00.760Z,19.21
2019-03-31T10:51:00.737Z,19.27
2019-03-31T10:52:00.719Z,19.21
2019-03-31T10:53:00.719Z,19.25
2019-03-31T10:54:00.697Z,19.30
2019-03-31T10:55:00.713Z,19.30
2019-03-31T10:56:00.680Z,19.27
2019-03-31T10:57:00.661Z,19.25
2019-03-31T10:58:00.651Z,19.31
2019-03-31T10:59:00.641Z,19.28
2019-03-31T11:00:00.645Z,19.32
2019-03-31T11:01:00.619Z,19.39
2019-03-31T11:02:00.611Z,19.39
2019-03-31T11:03:00.629Z,19.40
2019-03-31T11:04:00.587Z,19.40
2019-03-31T11:05:00.600Z,19.39
2019-03-31T11:06:00.619Z,19.39
2019-03-31T11:07:03.473Z,19.40
2019-03-31T11:08:00.554Z,19.39
2019-03-31T11:09:00.580Z,19.40
2019-03-31T11:10:00.533Z,19.43
2019-03-31T11:11:00.509Z,19.43
2019-03-31T11:12:00.496Z,19.38
2019-03-31T11:13:00.487Z,19.46
2019-03-31T11:14:00.485Z,19.49
2019-03-31T11:15:00.487Z,19.47
2019-03-31T11:16:00.456Z,19.39
2019-03-31T11:17:00.448Z,19.43
2019-03-31T11:18:00.442Z,19.46
2019-03-31T11:19:00.424Z,19.53
2019-03-31T11:20:01.032Z,19.52
2019-03-31T11:21:00.398Z,19.47
2019-03-31T11:22:00.389Z,19.52
2019-03-31T11:23:00.391Z,19.47
2019-03-31T11:24:00.366Z,19.45
2019-03-31T11:25:00.401Z,19.67
2019-03-31T11:26:00.352Z,19.55
2019-03-31T11:27:00.332Z,19.50
2019-03-31T11:28:00.323Z,19.60
2019-03-31T11:29:00.310Z,19.62
2019-03-31T11:30:00.394Z,19.55
2019-03-31T11:31:00.304Z,19.65
2019-03-31T11:32:00.278Z,19.61
2019-03-31T11:33:00.267Z,19.64
2019-03-31T11:34:00.272Z,19.60
2019-03-31T11:35:00.366Z,19.70
2019-03-31T11:36:00.254Z,19.70
2019-03-31T11:37:13.006Z,19.68
2019-03-31T11:38:01.214Z,19.68
2019-03-31T11:39:00.200Z,19.70
2019-03-31T11:40:00.408Z,19.70
2019-03-31T11:41:00.193Z,19.75
2019-03-31T11:42:00.172Z,19.72
2019-03-31T11:43:00.165Z,19.79
2019-03-31T11:44:00.145Z,19.78
2019-03-31T11:45:00.367Z,19.86
2019-03-31T11:46:00.140Z,19.76
2019-03-31T11:47:00.127Z,19.83
2019-03-31T11:48:00.127Z,19.94
2019-03-31T11:49:00.092Z,19.95
2019-03-31T11:50:00.336Z,19.98
2019-03-31T11:51:00.504Z,20.04
2019-03-31T11:52:00.062Z,20.08
2019-03-31T11:53:00.053Z,20.15
2019-03-31T11:54:00.044Z,20.12
2019-03-31T11:55:00.028Z,20.10
2019-03-31T11:56:00.031Z,20.26
2019-03-31T11:57:00.007Z,20.26
2019-03-31T11:57:59.994Z,20.30
2019-03-31T11:58:59.979Z,20.33
2019-03-31T11:59:59.974Z,20.40
2019-03-31T12:00:59.984Z,20.48
2019-03-31T12:02:00.014Z,20.50
2019-03-31T12:02:59.938Z,20.58
2019-03-31T12:03:59.945Z,20.64
2019-03-31T12:04:59.926Z,20.61
2019-03-31T12:05:59.923Z,20.64
2019-03-31T12:06:59.919Z,20.71
2019-03-31T12:07:59.880Z,20.76
2019-03-31T12:08:59.870Z,20.85
2019-03-31T12:09:59.869Z,20.88
2019-03-31T12:10:59.876Z,20.91
2019-03-31T12:11:59.855Z,20.91
2019-03-31T12:12:59.831Z,21.05
2019-03-31T12:13:59.816Z,20.97
2019-03-31T12:15:01.039Z,21.11
2019-03-31T12:15:59.812Z,21.03
2019-03-31T12:16:59.791Z,21.16
2019-03-31T12:17:59.787Z,21.15
2019-03-31T12:18:59.762Z,21.30
2019-03-31T12:19:59.754Z,21.27
2019-03-31T12:20:59.759Z,21.28
2019-03-31T12:21:59.730Z,21.30
2019-03-31T12:22:59.724Z,21.33
2019-03-31T12:23:59.709Z,21.34
2019-03-31T12:25:11.407Z,21.37
2019-03-31T12:25:59.702Z,21.31
2019-03-31T12:26:59.675Z,21.43
2019-03-31T12:27:59.664Z,21.48
2019-03-31T12:28:59.655Z,21.48
2019-03-31T12:29:59.644Z,21.46
2019-03-31T12:30:59.646Z,21.51
2019-03-31T12:31:59.626Z,21.51
2019-03-31T12:32:59.676Z,21.66
2019-03-31T12:33:59.602Z,21.68
2019-03-31T12:34:59.598Z,21.67
2019-03-31T12:35:59.607Z,21.61
2019-03-31T12:36:59.565Z,21.61
2019-03-31T12:37:59.555Z,21.66
2019-03-31T12:38:59.556Z,21.73
2019-03-31T12:39:59.539Z,21.75
2019-03-31T12:40:59.535Z,21.77
2019-03-31T12:41:59.508Z,21.74
2019-03-31T12:42:59.497Z,21.82
2019-03-31T12:43:59.488Z,21.82
2019-03-31T12:44:59.475Z,21.86
2019-03-31T12:45:59.480Z,21.85
2019-03-31T12:46:59.456Z,21.98
2019-03-31T12:48:01.231Z,21.93
2019-03-31T12:48:59.431Z,21.99
2019-03-31T12:49:59.421Z,21.99
2019-03-31T12:50:59.454Z,21.99
2019-03-31T12:51:59.402Z,22.17